Time,TemperatureF,DewpointF,PressureIn,WindDirection,WindDirectionDegrees,WindSpeedMPH,WindSpeedGustMPH,Humidity,HourlyPrecipIn,Conditions,Clouds,dailyrainin,SolarRadiationWatts/m^2,SoftwareType,DateUTC
2013-02-12 00:01:00,21.0,7.0,-100.00,WSW,253,8.0,10.0,54,0.00,,,0.00,0.000000,,2013-02-12 07:01:00,
2013-02-12 00:11:00,21.0,7.0,-100.00,WSW,253,8.0,10.0,54,0.00,,,0.00,0.000000,,2013-02-12 07:11:00,
2013-02-12 00:21:00,21.0,7.0,-100.00,WSW,253,8.0,10.0,54,0.00,,,0.00,0.000000,,2013-02-12 07:21:00,
2013-02-12 00:42:00,19.0,4.0,-100.00,WSW,242,7.0,12.0,51,0.00,,,-99.99,0.000000,,2013-02-12 07:42:00,
2013-02-12 00:52:00,19.0,4.0,-100.00,WSW,242,7.0,12.0,51,0.00,,,-99.99,0.000000,,2013-02-12 07:52:00,
2013-02-12 01:01:00,19.0,4.0,-100.00,WSW,242,7.0,12.0,51,0.00,,,-99.99,0.000000,,2013-02-12 08:01:00,
2013-02-12 01:11:00,19.0,4.0,-100.00,WSW,242,7.0,12.0,51,0.00,,,-99.99,0.000000,,2013-02-12 08:11:00,
2013-02-12 01:21:00,19.0,4.0,-100.00,WSW,242,7.0,12.0,51,0.00,,,-99.99,0.000000,,2013-02-12 08:21:00,
2013-02-12 01:42:00,20.0,6.0,-100.00,WSW,248,8.0,11.0,54,0.00,,,0.00,0.000000,,2013-02-12 08:42:00,
2013-02-12 01:52:00,20.0,6.0,-100.00,WSW,248,8.0,11.0,54,0.00,,,0.00,0.000000,,2013-02-12 08:52:00,
2013-02-12 02:01:00,20.0,6.0,-100.00,WSW,248,8.0,11.0,54,0.00,,,0.00,0.000000,,2013-02-12 09:01:00,
2013-02-12 02:11:00,20.0,6.0,-100.00,WSW,248,8.0,11.0,54,0.00,,,0.00,0.000000,,2013-02-12 09:11:00,
2013-02-12 02:21:00,20.0,6.0,-100.00,WSW,248,8.0,11.0,54,0.00,,,0.00,0.000000,,2013-02-12 09:21:00,
2013-02-12 02:42:00,19.0,5.0,-100.00,West,261,3.0,10.0,54,0.00,,,0.00,0.000000,,2013-02-12 09:42:00,
2013-02-12 02:52:00,19.0,5.0,-100.00,West,261,3.0,10.0,54,0.00,,,0.00,0.000000,,2013-02-12 09:52:00,
2013-02-12 03:01:00,19.0,5.0,-100.00,West,261,3.0,10.0,54,0.00,,,0.00,0.000000,,2013-02-12 10:01:00,
2013-02-12 03:11:00,19.0,5.0,-100.00,West,261,3.0,10.0,54,0.00,,,0.00,0.000000,,2013-02-12 10:11:00,
2013-02-12 03:21:00,19.0,5.0,-100.00,West,261,3.0,10.0,54,0.00,,,0.00,0.000000,,2013-02-12 10:21:00,
2013-02-12 03:43:00,20.0,7.0,-100.00,WSW,254,4.0,10.0,57,0.00,,,0.00,0.000000,,2013-02-12 10:43:00,
2013-02-12 03:52:00,20.0,7.0,-100.00,WSW,254,4.0,10.0,57,0.00,,,0.00,0.000000,,2013-02-12 10:52:00,
2013-02-12 04:01:00,20.0,7.0,-100.00,WSW,254,4.0,10.0,57,0.00,,,0.00,0.000000,,2013-02-12 11:01:00,
2013-02-12 04:11:00,20.0,7.0,-100.00,WSW,254,4.0,10.0,57,0.00,,,0.00,0.000000,,2013-02-12 11:11:00,
2013-02-12 04:21:00,20.0,7.0,-100.00,WSW,254,4.0,10.0,57,0.00,,,0.00,0.000000,,2013-02-12 11:21:00,
2013-02-12 04:42:00,19.0,5.0,-100.00,WSW,240,5.0,6.0,53,0.00,,,0.00,0.000000,,2013-02-12 11:42:00,
2013-02-12 04:52:00,19.0,5.0,-100.00,WSW,240,5.0,6.0,53,0.00,,,0.00,0.000000,,2013-02-12 11:52:00,
2013-02-12 05:01:00,19.0,5.0,-100.00,WSW,240,5.0,6.0,53,0.00,,,0.00,0.000000,,2013-02-12 12:01:00,
2013-02-12 05:11:00,19.0,5.0,-100.00,WSW,240,5.0,6.0,53,0.00,,,0.00,0.000000,,2013-02-12 12:11:00,
2013-02-12 05:21:00,19.0,5.0,-100.00,WSW,240,5.0,6.0,53,0.00,,,0.00,0.000000,,2013-02-12 12:21:00,
2013-02-12 05:42:00,21.0,7.0,-100.00,NNW,328,5.0,8.0,55,0.00,,,0.00,0.000000,,2013-02-12 12:42:00,
2013-02-12 05:52:00,21.0,7.0,-100.00,NNW,328,5.0,8.0,55,0.00,,,0.00,0.000000,,2013-02-12 12:52:00,
2013-02-12 06:01:00,21.0,7.0,-100.00,NNW,328,5.0,8.0,55,0.00,,,0.00,0.000000,,2013-02-12 13:01:00,
2013-02-12 06:11:00,21.0,7.0,-100.00,NNW,328,5.0,8.0,55,0.00,,,0.00,0.000000,,2013-02-12 13:11:00,
2013-02-12 06:21:00,21.0,7.0,-100.00,NNW,328,5.0,8.0,55,0.00,,,0.00,0.000000,,2013-02-12 13:21:00,
2013-02-12 06:42:00,20.0,8.0,-100.00,WSW,243,4.0,11.0,58,0.00,,,0.00,0.000000,,2013-02-12 13:42:00,
2013-02-12 06:52:00,20.0,8.0,-100.00,WSW,243,4.0,11.0,58,0.00,,,0.00,0.000000,,2013-02-12 13:52:00,
2013-02-12 07:01:00,20.0,8.0,-100.00,WSW,243,4.0,11.0,58,0.00,,,0.00,0.000000,,2013-02-12 14:01:00,
2013-02-12 07:11:00,20.0,8.0,-100.00,WSW,243,4.0,11.0,58,0.00,,,0.00,0.000000,,2013-02-12 14:11:00,
2013-02-12 07:21:00,20.0,8.0,-100.00,WSW,243,4.0,11.0,58,0.00,,,0.00,0.000000,,2013-02-12 14:21:00,
2013-02-12 07:42:00,18.0,6.0,-100.00,WSW,237,7.0,9.0,59,0.00,,,0.00,0.000000,,2013-02-12 14:42:00,
2013-02-12 07:52:00,18.0,6.0,-100.00,WSW,237,7.0,9.0,59,0.00,,,0.00,0.000000,,2013-02-12 14:52:00,
2013-02-12 08:01:00,18.0,6.0,-100.00,WSW,237,7.0,9.0,59,0.00,,,0.00,0.000000,,2013-02-12 15:01:00,
2013-02-12 08:11:00,18.0,6.0,-100.00,WSW,237,7.0,9.0,59,0.00,,,0.00,0.000000,,2013-02-12 15:11:00,
2013-02-12 08:21:00,18.0,6.0,-100.00,WSW,237,7.0,9.0,59,0.00,,,0.00,0.000000,,2013-02-12 15:21:00,
2013-02-12 08:42:00,20.0,4.0,-100.00,WSW,239,9.0,11.0,50,0.00,,,0.00,0.000000,,2013-02-12 15:42:00,
2013-02-12 08:52:00,20.0,4.0,-100.00,WSW,239,9.0,11.0,50,0.00,,,0.00,0.000000,,2013-02-12 15:52:00,
2013-02-12 09:01:00,20.0,4.0,-100.00,WSW,239,9.0,11.0,50,0.00,,,0.00,0.000000,,2013-02-12 16:01:00,
2013-02-12 09:11:00,20.0,4.0,-100.00,WSW,239,9.0,11.0,50,0.00,,,0.00,0.000000,,2013-02-12 16:11:00,
2013-02-12 09:21:00,20.0,4.0,-100.00,WSW,239,9.0,11.0,50,0.00,,,0.00,0.000000,,2013-02-12 16:21:00,
2013-02-12 09:42:00,27.0,10.0,-100.00,East,86,1.0,12.0,48,0.00,,,0.00,32.000000,,2013-02-12 16:42:00,
2013-02-12 09:52:00,27.0,10.0,-100.00,East,86,1.0,12.0,48,0.00,,,0.00,32.000000,,2013-02-12 16:52:00,
2013-02-12 10:01:00,27.0,10.0,-100.00,East,86,1.0,12.0,48,0.00,,,0.00,32.000000,,2013-02-12 17:01:00,
2013-02-12 10:11:00,27.0,10.0,-100.00,East,86,1.0,12.0,48,0.00,,,0.00,32.000000,,2013-02-12 17:11:00,
2013-02-12 10:21:00,27.0,10.0,-100.00,East,86,1.0,12.0,48,0.00,,,0.00,32.000000,,2013-02-12 17:21:00,
2013-02-12 10:22:00,30.0,11.0,-100.00,WNW,297,8.0,10.0,45,0.00,,,0.00,136.000000,,2013-02-12 17:22:00,
2013-02-12 10:42:00,30.0,11.0,-100.00,WNW,297,8.0,10.0,45,0.00,,,0.00,136.000000,,2013-02-12 17:42:00,
2013-02-12 10:52:00,30.0,11.0,-100.00,WNW,297,8.0,10.0,45,0.00,,,0.00,136.000000,,2013-02-12 17:52:00,
2013-02-12 11:01:00,30.0,11.0,-100.00,WNW,297,8.0,10.0,45,0.00,,,0.00,136.000000,,2013-02-12 18:01:00,
2013-02-12 11:11:00,30.0,11.0,-100.00,WNW,297,8.0,10.0,45,0.00,,,0.00,136.000000,,2013-02-12 18:11:00,
2013-02-12 11:42:00,34.0,14.0,-100.00,East,97,2.0,11.0,44,0.00,,,0.00,189.000000,,2013-02-12 18:42:00,
2013-02-12 11:52:00,34.0,14.0,-100.00,East,97,2.0,11.0,44,0.00,,,0.00,189.000000,,2013-02-12 18:52:00,
2013-02-12 12:02:00,34.0,14.0,-100.00,East,97,2.0,11.0,44,0.00,,,0.00,189.000000,,2013-02-12 19:02:00,
2013-02-12 12:11:00,34.0,14.0,-100.00,East,97,2.0,11.0,44,0.00,,,0.00,189.000000,,2013-02-12 19:11:00,
2013-02-12 12:21:00,34.0,14.0,-100.00,East,97,2.0,11.0,44,0.00,,,0.00,189.000000,,2013-02-12 19:21:00,
2013-02-12 12:42:00,37.0,19.0,-100.00,SSE,156,2.0,9.0,48,0.00,,,-99.99,428.000000,,2013-02-12 19:42:00,
2013-02-12 12:52:00,37.0,19.0,-100.00,SSE,156,2.0,9.0,48,0.00,,,-99.99,428.000000,,2013-02-12 19:52:00,
2013-02-12 13:01:00,37.0,19.0,-100.00,SSE,156,2.0,9.0,48,0.00,,,-99.99,428.000000,,2013-02-12 20:01:00,
2013-02-12 13:11:00,37.0,19.0,-100.00,SSE,156,2.0,9.0,48,0.00,,,-99.99,428.000000,,2013-02-12 20:11:00,
2013-02-12 13:21:00,37.0,19.0,-100.00,SSE,156,2.0,9.0,48,0.00,,,-99.99,428.000000,,2013-02-12 20:21:00,
2013-02-12 13:42:00,36.0,17.0,-100.00,SE,135,6.0,7.0,46,0.00,,,0.00,350.000000,,2013-02-12 20:42:00,
2013-02-12 13:52:00,36.0,17.0,-100.00,SE,135,6.0,7.0,46,0.00,,,0.00,350.000000,,2013-02-12 20:52:00,
2013-02-12 14:01:00,36.0,17.0,-100.00,SE,135,6.0,7.0,46,0.00,,,0.00,350.000000,,2013-02-12 21:01:00,
2013-02-12 14:11:00,36.0,17.0,-100.00,SE,135,6.0,7.0,46,0.00,,,0.00,350.000000,,2013-02-12 21:11:00,
2013-02-12 14:21:00,36.0,17.0,-100.00,SE,135,6.0,7.0,46,0.00,,,0.00,350.000000,,2013-02-12 21:21:00,
2013-02-12 14:42:00,37.0,17.0,-100.00,SE,131,5.0,11.0,44,0.00,,,0.00,331.000000,,2013-02-12 21:42:00,
2013-02-12 14:52:00,37.0,17.0,-100.00,SE,131,5.0,11.0,44,0.00,,,0.00,331.000000,,2013-02-12 21:52:00,
2013-02-12 15:01:00,37.0,17.0,-100.00,SE,131,5.0,11.0,44,0.00,,,0.00,331.000000,,2013-02-12 22:01:00,
2013-02-12 15:12:00,37.0,17.0,-100.00,SE,131,5.0,11.0,44,0.00,,,0.00,331.000000,,2013-02-12 22:12:00,
2013-02-12 15:21:00,37.0,17.0,-100.00,SE,131,5.0,11.0,44,0.00,,,0.00,331.000000,,2013-02-12 22:21:00,
2013-02-12 15:42:00,38.0,19.0,-100.00,SSE,165,3.0,11.0,45,0.00,,,0.00,515.000000,,2013-02-12 22:42:00,
2013-02-12 15:52:00,38.0,19.0,-100.00,SSE,165,3.0,11.0,45,0.00,,,0.00,515.000000,,2013-02-12 22:52:00,
2013-02-12 16:01:00,38.0,19.0,-100.00,SSE,165,3.0,11.0,45,0.00,,,0.00,515.000000,,2013-02-12 23:01:00,
2013-02-12 16:11:00,38.0,19.0,-100.00,SSE,165,3.0,11.0,45,0.00,,,0.00,515.000000,,2013-02-12 23:11:00,
2013-02-12 16:21:00,38.0,19.0,-100.00,SSE,165,3.0,11.0,45,0.00,,,0.00,515.000000,,2013-02-12 23:21:00,
2013-02-12 16:42:00,35.0,15.0,-100.00,ESE,113,2.0,12.0,44,0.00,,,0.00,367.000000,,2013-02-12 23:42:00,
2013-02-12 16:52:00,35.0,15.0,-100.00,ESE,113,2.0,12.0,44,0.00,,,0.00,367.000000,,2013-02-12 23:52:00,
2013-02-12 17:02:00,35.0,15.0,-100.00,ESE,113,2.0,12.0,44,0.00,,,0.00,367.000000,,2013-02-13 00:02:00,
2013-02-12 17:11:00,35.0,15.0,-100.00,ESE,113,2.0,12.0,44,0.00,,,0.00,367.000000,,2013-02-13 00:11:00,
2013-02-12 17:21:00,35.0,15.0,-100.00,ESE,113,2.0,12.0,44,0.00,,,0.00,367.000000,,2013-02-13 00:21:00,
2013-02-12 17:42:00,37.0,18.0,-100.00,WNW,292,5.0,8.0,45,0.00,,,0.00,224.000000,,2013-02-13 00:42:00,
2013-02-12 17:52:00,37.0,18.0,-100.00,WNW,292,5.0,8.0,45,0.00,,,0.00,224.000000,,2013-02-13 00:52:00,
2013-02-12 18:01:00,37.0,18.0,-100.00,WNW,292,5.0,8.0,45,0.00,,,0.00,224.000000,,2013-02-13 01:01:00,
2013-02-12 18:11:00,37.0,18.0,-100.00,WNW,292,5.0,8.0,45,0.00,,,0.00,224.000000,,2013-02-13 01:11:00,
2013-02-12 18:21:00,37.0,18.0,-100.00,WNW,292,5.0,8.0,45,0.00,,,0.00,224.000000,,2013-02-13 01:21:00,
2013-02-12 19:11:00,38.0,19.0,-100.00,West,273,11.0,15.0,46,0.00,,,-99.99,38.000000,,2013-02-13 02:11:00,
2013-02-12 19:21:00,38.0,19.0,-100.00,West,273,11.0,15.0,46,0.00,,,-99.99,38.000000,,2013-02-13 02:21:00,
2013-02-12 19:42:00,35.0,16.0,-100.00,West,276,12.0,16.0,45,0.00,,,0.00,2.000000,,2013-02-13 02:42:00,
2013-02-12 19:52:00,35.0,16.0,-100.00,West,276,12.0,16.0,45,0.00,,,0.00,2.000000,,2013-02-13 02:52:00,
2013-02-12 20:01:00,35.0,16.0,-100.00,West,276,12.0,16.0,45,0.00,,,0.00,2.000000,,2013-02-13 03:01:00,
2013-02-12 20:11:00,35.0,16.0,-100.00,West,276,12.0,16.0,45,0.00,,,0.00,2.000000,,2013-02-13 03:11:00,
2013-02-12 20:21:00,35.0,16.0,-100.00,West,276,12.0,16.0,45,0.00,,,0.00,2.000000,,2013-02-13 03:21:00,
2013-02-12 20:42:00,35.0,14.0,-100.00,West,270,16.0,24.0,41,0.00,,,0.00,0.000000,,2013-02-13 03:42:00,
2013-02-12 20:52:00,35.0,14.0,-100.00,West,270,16.0,24.0,41,0.00,,,0.00,0.000000,,2013-02-13 03:52:00,
2013-02-12 21:01:00,35.0,14.0,-100.00,West,270,16.0,24.0,41,0.00,,,0.00,0.000000,,2013-02-13 04:01:00,
2013-02-12 21:11:00,35.0,14.0,-100.00,West,270,16.0,24.0,41,0.00,,,0.00,0.000000,,2013-02-13 04:11:00,
2013-02-12 21:21:00,35.0,14.0,-100.00,West,270,16.0,24.0,41,0.00,,,0.00,0.000000,,2013-02-13 04:21:00,
2013-02-12 21:42:00,38.0,16.0,-100.00,West,279,17.0,22.0,41,0.00,,,0.00,0.000000,,2013-02-13 04:42:00,
2013-02-12 21:52:00,38.0,16.0,-100.00,West,279,17.0,22.0,41,0.00,,,0.00,0.000000,,2013-02-13 04:52:00,
2013-02-12 22:01:00,38.0,16.0,-100.00,West,279,17.0,22.0,41,0.00,,,0.00,0.000000,,2013-02-13 05:01:00,
2013-02-12 22:21:00,38.0,16.0,-100.00,West,279,17.0,22.0,41,0.00,,,0.00,0.000000,,2013-02-13 05:21:00,
2013-02-12 22:42:00,37.0,15.0,-100.00,West,281,11.0,26.0,40,0.00,,,0.00,0.000000,,2013-02-13 05:42:00,
2013-02-12 22:52:00,37.0,15.0,-100.00,West,281,11.0,26.0,40,0.00,,,0.00,0.000000,,2013-02-13 05:52:00,
2013-02-12 23:02:00,37.0,15.0,-100.00,West,281,11.0,26.0,40,0.00,,,0.00,0.000000,,2013-02-13 06:02:00,
2013-02-12 23:11:00,37.0,15.0,-100.00,West,281,11.0,26.0,40,0.00,,,0.00,0.000000,,2013-02-13 06:11:00,
2013-02-12 23:21:00,37.0,15.0,-100.00,West,281,11.0,26.0,40,0.00,,,0.00,0.000000,,2013-02-13 06:21:00,
2013-02-12 23:42:00,37.0,13.0,-100.00,WSW,257,12.0,21.0,37,0.00,,,0.00,0.000000,,2013-02-13 06:42:00,
2013-02-12 23:52:00,37.0,13.0,-100.00,WSW,257,12.0,21.0,37,0.00,,,0.00,0.000000,,2013-02-13 06:52:00,